Strona główna
METAR-TAF:

METAR-TAF

Lotnisko :

Port lotniczy Mendoza

Mendoza, Argentyna

Szerokość geograficzna: 32-50S, Długość geograficzna: 068-47W, wysokość: 705 m

Aktualna obserwacja pogody

Raport powstał 1 godzina i 1 minut temu, godzina 17:00 UTC
Wiatr 4 kt od północny wschód
Temperatura 15°C
Wilgotność 41%
Ciśnienie 1019 hPa
Widzialność 10 km lub więcej
Mało chmury na wysokości 4500 ft

METAR: SAME 211700Z 05004KT 9999 FEW045 15/02 Q1019

czas: 15:01 (18:01 UTC)

Prognoza

Raport powstał 1 godzina i 1 minut temu, godzina 17:00 UTC
Prognoza ważna od 21 godzina 18 UTC do 22 godzina 18 UTC
Wiatr 5 kt od południowy wschód
Widzialność 10 km lub więcej
Mało chmury na wysokości 4000 ft

TAF: SAME 211700Z 2118/2218 14005KT 9999 FEW040 TX18/2119Z TN02/2110Z

Obserwacja i prognoza pogody dla ponad 4000 lotnisk (raport METAR i TAF).

Dostępne stacje oznaczono żółtymi i czerwonymi punktami na mapie.

Najedź kursorem aby zobaczyć nazwę stacji.

Kliknij aby zobaczyć obserwacje i prognozy pogody.

Aby zmienić mapę: kliknij na zielony przycisk z czarnym krzyżykiem, aby powiększyć; na zielony przycisk z myślnikiem, aby pomniejszyć; na zielone strzałki, aby przejść do map sąsiednich.


METAR-TAF: